Time;durP1;ratioP1;P1;durP2;ratioP2;P2;SDS_P1;SDS_P2;PMS_P1;PMS_P2;Temp;Humidity;BMP_temperature;BMP_pressure;BME280_temperature;BME280_humidity;BME280_pressure;Samples;Min_cycle;Max_cycle;Signal;HPM_P1;HPM_P2
2023/12/31 00:01:02;;;;;;;;;;;8.20;99.90;;;;;;6217027;23;20276;-76
2023/12/31 00:03:27;;;;;;;;;;;8.30;99.90;;;;;;6216375;23;19920;-76
2023/12/31 00:05:53;;;;;;;;;;;8.30;99.90;;;;;;6190159;23;19927;-76
2023/12/31 00:08:18;;;;;;;;;;;8.20;99.90;;;;;;6189995;23;19991;-76
2023/12/31 00:10:47;;;;;;;;;;;8.30;99.90;;;;;;6216775;23;19919;-76
2023/12/31 00:13:12;;;;;;;;;;;8.30;99.90;;;;;;6190053;23;19922;-76
2023/12/31 00:15:38;;;;;;;;;;;8.30;99.90;;;;;;6190007;23;19923;-76
2023/12/31 00:18:03;;;;;;;;;;;8.30;99.90;;;;;;6216523;23;19916;-76
2023/12/31 00:20:29;;;;;;;;;;;8.30;99.90;;;;;;6189926;23;19916;-75
2023/12/31 00:22:56;;;;;;;;;;;8.30;99.90;;;;;;6216721;23;19916;-76
2023/12/31 00:25:21;;;;;;;;;;;8.30;99.90;;;;;;6189886;23;19970;-76
2023/12/31 00:27:46;;;;;;;;;;;8.30;99.90;;;;;;6189821;23;19924;-76
2023/12/31 00:30:12;;;;;;;;;;;8.40;99.90;;;;;;6189778;23;19916;-76
2023/12/31 00:32:38;;;;;;;;;;;8.40;99.90;;;;;;6217438;23;19922;-76
2023/12/31 00:35:04;;;;;;;;;;;8.40;99.90;;;;;;6216838;23;20015;-76
2023/12/31 00:37:30;;;;;;;;;;;8.40;99.90;;;;;;6189912;23;19962;-76
2023/12/31 00:39:55;;;;;;;;;;;8.40;99.90;;;;;;6189809;23;19956;-76
2023/12/31 00:42:21;;;;;;;;;;;8.40;99.90;;;;;;6216725;23;19920;-76
2023/12/31 00:44:47;;;;;;;;;;;8.40;99.90;;;;;;6216369;23;19926;-76
2023/12/31 00:47:13;;;;;;;;;;;8.40;99.90;;;;;;6189744;23;19962;-76
2023/12/31 00:49:38;;;;;;;;;;;8.50;99.90;;;;;;6216156;23;20011;-76
2023/12/31 00:52:05;;;;;;;;;;;8.40;99.90;;;;;;6189792;23;19970;-76
2023/12/31 00:54:34;;;;;;;;;;;8.40;99.90;;;;;;6189602;23;19939;-76
2023/12/31 00:56:59;;;;;;;;;;;8.40;99.90;;;;;;6189788;23;19916;-76
2023/12/31 00:59:25;;;;;;;;;;;8.40;99.90;;;;;;6216516;23;19916;-76
2023/12/31 01:01:54;;;;;;;;;;;8.40;99.90;;;;;;6216618;23;19919;-76
2023/12/31 01:04:20;;;;;;;;;;;8.40;99.90;;;;;;6216610;23;19916;-76
2023/12/31 01:06:45;;;;;;;;;;;8.40;99.90;;;;;;6189733;23;20004;-76
2023/12/31 01:09:11;;;;;;;;;;;8.40;99.90;;;;;;6189762;23;19915;-76
2023/12/31 01:11:36;;;;;;;;;;;8.40;99.90;;;;;;6216253;23;20248;-76
2023/12/31 01:14:02;;;;;;;;;;;8.30;99.90;;;;;;6189777;23;19923;-76
2023/12/31 01:16:27;;;;;;;;;;;8.30;99.90;;;;;;6218390;23;19919;-76
2023/12/31 01:18:53;;;;;;;;;;;8.30;99.90;;;;;;6218468;23;19923;-76
2023/12/31 01:21:19;;;;;;;;;;;8.30;99.90;;;;;;6191580;23;19918;-76
2023/12/31 01:23:45;;;;;;;;;;;8.30;99.90;;;;;;6191530;23;19930;-76
2023/12/31 01:26:11;;;;;;;;;;;8.20;99.90;;;;;;6191506;23;19925;-76
2023/12/31 01:28:36;;;;;;;;;;;8.20;99.90;;;;;;6218409;23;19916;-76
2023/12/31 01:31:02;;;;;;;;;;;8.20;99.90;;;;;;6191354;23;19915;-76
2023/12/31 01:33:27;;;;;;;;;;;8.20;99.90;;;;;;6191438;23;19994;-76
2023/12/31 01:35:54;;;;;;;;;;;8.20;99.90;;;;;;6191465;23;19919;-76
2023/12/31 01:38:19;;;;;;;;;;;8.10;99.90;;;;;;6218299;23;19916;-76
2023/12/31 01:40:54;;;;;;;;;;;8.10;99.90;;;;;;6191475;23;19916;-76
2023/12/31 01:43:20;;;;;;;;;;;8.10;99.90;;;;;;6191272;23;19962;-76
2023/12/31 01:45:46;;;;;;;;;;;8.10;99.90;;;;;;6190994;23;19922;-76
2023/12/31 01:48:12;;;;;;;;;;;8.10;99.90;;;;;;6191156;23;19915;-76
2023/12/31 01:50:39;;;;;;;;;;;8.10;99.90;;;;;;6217946;23;19916;-76
2023/12/31 01:53:06;;;;;;;;;;;8.10;99.90;;;;;;6191173;23;20307;-76
2023/12/31 01:55:31;;;;;;;;;;;8.10;99.90;;;;;;6191179;23;19916;-76
2023/12/31 01:57:57;;;;;;;;;;;8.10;99.90;;;;;;6191249;23;19927;-76
2023/12/31 02:00:25;;;;;;;;;;;8.10;99.90;;;;;;6218040;23;19916;-76
2023/12/31 02:02:54;;;;;;;;;;;8.10;99.90;;;;;;6218477;23;19951;-76
2023/12/31 02:05:20;;;;;;;;;;;8.10;99.90;;;;;;6217748;23;19939;-76
2023/12/31 02:07:45;;;;;;;;;;;8.10;99.90;;;;;;6218013;23;20319;-76
2023/12/31 02:10:11;;;;;;;;;;;8.10;99.90;;;;;;6217654;23;19922;-76
2023/12/31 02:12:37;;;;;;;;;;;8.10;99.90;;;;;;6191057;23;19920;-76
2023/12/31 02:15:03;;;;;;;;;;;8.10;99.90;;;;;;6190967;23;19919;-76
2023/12/31 02:17:28;;;;;;;;;;;8.20;99.90;;;;;;6217936;23;20383;-76
2023/12/31 02:19:54;;;;;;;;;;;8.20;99.90;;;;;;6191004;23;20362;-76
2023/12/31 02:22:20;;;;;;;;;;;8.10;99.90;;;;;;6190906;23;20010;-76
2023/12/31 02:24:48;;;;;;;;;;;8.20;99.90;;;;;;6217950;23;19995;-76
2023/12/31 02:27:14;;;;;;;;;;;8.10;99.90;;;;;;6217089;23;19920;-76
2023/12/31 02:29:40;;;;;;;;;;;8.10;99.90;;;;;;6190887;23;19947;-76
2023/12/31 02:32:05;;;;;;;;;;;8.10;99.90;;;;;;6190940;23;19963;-76
2023/12/31 02:34:31;;;;;;;;;;;8.10;99.90;;;;;;6217738;23;20324;-76
2023/12/31 02:36:57;;;;;;;;;;;8.10;99.90;;;;;;6217825;23;19920;-76
2023/12/31 02:39:23;;;;;;;;;;;8.00;99.90;;;;;;6217765;23;19923;-76
2023/12/31 02:41:48;;;;;;;;;;;8.10;99.90;;;;;;6190868;23;19922;-76
2023/12/31 02:44:14;;;;;;;;;;;8.00;99.90;;;;;;6217722;23;19915;-76
2023/12/31 02:46:42;;;;;;;;;;;8.00;99.90;;;;;;6190695;23;19982;-76
2023/12/31 02:49:10;;;;;;;;;;;8.00;99.90;;;;;;6217201;23;19958;-76
2023/12/31 02:51:38;;;;;;;;;;;8.00;99.90;;;;;;6190431;23;19916;-76
2023/12/31 02:54:03;;;;;;;;;;;7.90;99.90;;;;;;6190564;23;19923;-76
2023/12/31 02:56:29;;;;;;;;;;;7.90;99.90;;;;;;6217553;23;19912;-76
2023/12/31 02:58:54;;;;;;;;;;;7.90;99.90;;;;;;6190781;23;19916;-76
2023/12/31 03:01:20;;;;;;;;;;;7.90;99.90;;;;;;6217352;23;19915;-76
2023/12/31 03:03:46;;;;;;;;;;;7.80;99.90;;;;;;6217492;23;19916;-76
2023/12/31 03:06:14;;;;;;;;;;;7.80;99.90;;;;;;6217454;23;19958;-76
2023/12/31 03:08:40;;;;;;;;;;;7.80;99.90;;;;;;6190511;23;19994;-76
2023/12/31 03:11:08;;;;;;;;;;;7.80;99.90;;;;;;6190399;23;20002;-76
2023/12/31 03:13:34;;;;;;;;;;;7.80;99.90;;;;;;6190414;23;20209;-76
2023/12/31 03:16:06;;;;;;;;;;;7.80;99.90;;;;;;6190416;23;19919;-76
2023/12/31 03:18:32;;;;;;;;;;;7.80;99.90;;;;;;6190420;23;19991;-76
2023/12/31 03:20:57;;;;;;;;;;;7.80;99.90;;;;;;6190470;23;19953;-76
2023/12/31 03:23:23;;;;;;;;;;;7.80;99.90;;;;;;6190333;23;19990;-75
2023/12/31 03:25:48;;;;;;;;;;;7.80;99.90;;;;;;6216966;23;19990;-75
2023/12/31 03:28:16;;;;;;;;;;;7.80;99.90;;;;;;6190423;23;20224;-75
2023/12/31 03:30:42;;;;;;;;;;;7.90;99.90;;;;;;6217136;23;19959;-75
2023/12/31 03:33:07;;;;;;;;;;;7.90;99.90;;;;;;6217229;23;19919;-75
2023/12/31 03:35:33;;;;;;;;;;;7.90;99.90;;;;;;6216779;23;19912;-76
2023/12/31 03:37:58;;;;;;;;;;;7.90;99.90;;;;;;6189984;23;19923;-75
2023/12/31 03:40:24;;;;;;;;;;;7.90;99.90;;;;;;6190174;23;19919;-76
2023/12/31 03:42:50;;;;;;;;;;;7.90;99.90;;;;;;6190132;23;20291;-76
2023/12/31 03:45:15;;;;;;;;;;;7.90;99.90;;;;;;6190189;23;19915;-76
2023/12/31 03:47:41;;;;;;;;;;;7.90;99.90;;;;;;6217047;23;19912;-76
2023/12/31 03:50:07;;;;;;;;;;;7.90;99.90;;;;;;6189869;23;19920;-76
2023/12/31 03:52:41;;;;;;;;;;;8.00;99.90;;;;;;6216990;23;19923;-76
2023/12/31 03:55:06;;;;;;;;;;;7.90;99.90;;;;;;6216602;23;20244;-76
2023/12/31 03:57:32;;;;;;;;;;;8.00;99.90;;;;;;6190028;23;19916;-76
2023/12/31 03:59:57;;;;;;;;;;;7.90;99.90;;;;;;6190061;23;19962;-76
2023/12/31 04:02:23;;;;;;;;;;;7.90;99.90;;;;;;6216938;23;19970;-76
2023/12/31 04:04:48;;;;;;;;;;;7.90;99.90;;;;;;6216693;23;19915;-75
2023/12/31 04:07:17;;;;;;;;;;;8.00;99.90;;;;;;6189772;23;20239;-76
2023/12/31 04:09:43;;;;;;;;;;;8.00;99.90;;;;;;6190064;23;19916;-76
2023/12/31 04:12:08;;;;;;;;;;;7.90;99.90;;;;;;6190003;23;19916;-76
2023/12/31 04:14:34;;;;;;;;;;;7.90;99.90;;;;;;6189764;23;19923;-75
2023/12/31 04:16:59;;;;;;;;;;;7.90;99.90;;;;;;6190013;23;19990;-75
2023/12/31 04:19:25;;;;;;;;;;;7.90;99.90;;;;;;6189981;23;20343;-75
2023/12/31 04:21:50;;;;;;;;;;;7.90;99.90;;;;;;6189897;23;19922;-75
2023/12/31 04:24:16;;;;;;;;;;;8.00;99.90;;;;;;6189895;23;20306;-75
2023/12/31 04:26:45;;;;;;;;;;;8.00;99.90;;;;;;6216642;23;19922;-76
2023/12/31 04:29:10;;;;;;;;;;;8.00;99.90;;;;;;6216806;23;19916;-75
2023/12/31 04:31:46;;;;;;;;;;;8.00;99.90;;;;;;6189768;23;19916;-75
2023/12/31 04:34:11;;;;;;;;;;;8.00;99.90;;;;;;6189952;23;20320;-75
2023/12/31 04:36:37;;;;;;;;;;;8.10;99.90;;;;;;6216407;23;19926;-75
2023/12/31 04:39:03;;;;;;;;;;;8.10;99.90;;;;;;6189921;23;19916;-75
2023/12/31 04:41:28;;;;;;;;;;;8.10;99.90;;;;;;6216670;23;19927;-76
2023/12/31 04:43:54;;;;;;;;;;;8.10;99.90;;;;;;6216739;23;20279;-76
2023/12/31 04:46:20;;;;;;;;;;;8.10;99.90;;;;;;6189706;23;19967;-76
2023/12/31 04:48:46;;;;;;;;;;;8.10;99.90;;;;;;6216382;23;19915;-76
2023/12/31 04:51:28;;;;;;;;;;;8.20;99.90;;;;;;6218310;23;19922;-76
2023/12/31 04:53:54;;;;;;;;;;;8.20;99.90;;;;;;6218826;23;19923;-76
2023/12/31 04:56:20;;;;;;;;;;;8.20;99.90;;;;;;6191791;23;19912;-75
2023/12/31 04:58:49;;;;;;;;;;;8.20;99.90;;;;;;6218723;23;19971;-75
2023/12/31 05:01:15;;;;;;;;;;;8.20;99.90;;;;;;6191750;23;19911;-76
2023/12/31 05:03:40;;;;;;;;;;;8.20;99.90;;;;;;6218490;23;19970;-76
2023/12/31 05:06:18;;;;;;;;;;;8.20;99.90;;;;;;6218661;23;20251;-76
2023/12/31 05:08:44;;;;;;;;;;;8.20;99.90;;;;;;6218650;23;19912;-76
2023/12/31 05:11:13;;;;;;;;;;;8.20;99.90;;;;;;6191492;23;20351;-76
2023/12/31 05:13:39;;;;;;;;;;;8.20;99.90;;;;;;6218391;23;19922;-76
2023/12/31 05:16:06;;;;;;;;;;;8.20;99.90;;;;;;6218384;23;19916;-76
2023/12/31 05:18:31;;;;;;;;;;;8.20;99.90;;;;;;6218390;23;19916;-76
2023/12/31 05:20:57;;;;;;;;;;;8.10;99.90;;;;;;6191588;23;20111;-76
2023/12/31 05:23:22;;;;;;;;;;;8.10;99.90;;;;;;6191560;23;19916;-76
2023/12/31 05:25:49;;;;;;;;;;;8.00;99.90;;;;;;6191605;23;19951;-76
2023/12/31 05:28:14;;;;;;;;;;;8.10;99.90;;;;;;6218377;23;20034;-76
2023/12/31 05:30:41;;;;;;;;;;;8.10;99.90;;;;;;6191427;23;19955;-76
2023/12/31 05:33:07;;;;;;;;;;;8.00;99.90;;;;;;6217918;23;19916;-76
2023/12/31 05:35:32;;;;;;;;;;;8.00;99.90;;;;;;6191518;23;20436;-76
2023/12/31 05:37:58;;;;;;;;;;;8.00;99.90;;;;;;6218524;23;19990;-76
2023/12/31 05:40:23;;;;;;;;;;;8.00;99.90;;;;;;6218020;23;20218;-76
2023/12/31 05:42:49;;;;;;;;;;;7.90;99.90;;;;;;6217908;23;19916;-76
2023/12/31 05:45:14;;;;;;;;;;;8.00;99.90;;;;;;6191607;23;20320;-76
2023/12/31 05:47:46;;;;;;;;;;;7.90;99.90;;;;;;6191258;23;20288;-76
2023/12/31 05:50:12;;;;;;;;;;;7.90;99.90;;;;;;6190846;23;19987;-76
2023/12/31 05:52:38;;;;;;;;;;;8.00;99.90;;;;;;6191270;23;19920;-76
2023/12/31 05:55:04;;;;;;;;;;;8.00;99.90;;;;;;6218175;23;19916;-76
2023/12/31 05:57:30;;;;;;;;;;;8.00;99.90;;;;;;6218296;23;19943;-76
2023/12/31 05:59:55;;;;;;;;;;;8.00;99.90;;;;;;6217775;23;19923;-76
2023/12/31 06:02:21;;;;;;;;;;;8.00;99.90;;;;;;6190812;23;19995;-76
2023/12/31 06:04:46;;;;;;;;;;;8.00;99.90;;;;;;6191073;23;19994;-76
2023/12/31 06:07:12;;;;;;;;;;;8.00;99.90;;;;;;6191175;23;19916;-76
2023/12/31 06:09:37;;;;;;;;;;;8.00;99.90;;;;;;6191067;23;20271;-76
2023/12/31 06:12:03;;;;;;;;;;;8.00;99.90;;;;;;6217587;23;20014;-76
2023/12/31 06:14:29;;;;;;;;;;;8.00;99.90;;;;;;6217670;23;19916;-76
2023/12/31 06:16:54;;;;;;;;;;;8.00;99.90;;;;;;6217999;23;19958;-76
2023/12/31 06:19:20;;;;;;;;;;;8.00;99.90;;;;;;6191031;23;19951;-76
2023/12/31 06:21:45;;;;;;;;;;;8.00;99.90;;;;;;6217629;23;19970;-76
2023/12/31 06:24:11;;;;;;;;;;;8.00;99.90;;;;;;6217871;23;19963;-76
2023/12/31 06:26:37;;;;;;;;;;;8.00;99.90;;;;;;6217830;23;19916;-76
2023/12/31 06:29:03;;;;;;;;;;;8.00;99.90;;;;;;6190854;23;20252;-76
2023/12/31 06:31:28;;;;;;;;;;;8.00;99.90;;;;;;6217396;23;19919;-76
2023/12/31 06:33:54;;;;;;;;;;;8.00;99.90;;;;;;6190895;23;19916;-76
2023/12/31 06:36:19;;;;;;;;;;;8.00;99.90;;;;;;6217484;23;19919;-76
2023/12/31 06:38:45;;;;;;;;;;;7.90;99.90;;;;;;6190719;23;19922;-76
2023/12/31 06:41:11;;;;;;;;;;;8.00;99.90;;;;;;6217811;23;19916;-76
2023/12/31 06:43:36;;;;;;;;;;;8.00;99.90;;;;;;6217683;23;19912;-76
2023/12/31 06:46:02;;;;;;;;;;;8.00;99.90;;;;;;6190864;23;19915;-76
2023/12/31 06:48:28;;;;;;;;;;;7.90;99.90;;;;;;6217071;23;20247;-76
2023/12/31 06:50:53;;;;;;;;;;;7.90;99.90;;;;;;6190733;23;19951;-76
2023/12/31 06:53:19;;;;;;;;;;;7.90;99.90;;;;;;6190841;23;19966;-76
2023/12/31 06:55:45;;;;;;;;;;;7.90;99.90;;;;;;6190748;23;20346;-76
2023/12/31 06:58:10;;;;;;;;;;;7.90;99.90;;;;;;6190600;23;19923;-77
2023/12/31 07:00:36;;;;;;;;;;;7.90;99.90;;;;;;6217521;23;19987;-76
2023/12/31 07:03:01;;;;;;;;;;;7.90;99.90;;;;;;6217196;23;19922;-76
2023/12/31 07:05:27;;;;;;;;;;;7.90;99.90;;;;;;6190724;23;19915;-76
2023/12/31 07:07:52;;;;;;;;;;;8.00;99.90;;;;;;6217404;23;20239;-76
2023/12/31 07:10:18;;;;;;;;;;;7.90;99.90;;;;;;6217375;23;19920;-76
2023/12/31 07:12:44;;;;;;;;;;;7.90;99.90;;;;;;6190347;23;19916;-76
2023/12/31 07:15:10;;;;;;;;;;;8.00;99.90;;;;;;6217404;23;19954;-76
2023/12/31 07:17:35;;;;;;;;;;;8.00;99.90;;;;;;6216879;23;20298;-76
2023/12/31 07:20:03;;;;;;;;;;;8.00;99.90;;;;;;6190464;23;19970;-76
2023/12/31 07:22:28;;;;;;;;;;;8.00;99.90;;;;;;6190418;23;19923;-76
2023/12/31 07:24:54;;;;;;;;;;;7.90;99.90;;;;;;6190438;23;19915;-76
2023/12/31 07:27:19;;;;;;;;;;;8.00;99.90;;;;;;6190261;23;19911;-76
2023/12/31 07:29:45;;;;;;;;;;;8.00;99.90;;;;;;6190374;23;19916;-76
2023/12/31 07:32:11;;;;;;;;;;;8.00;99.90;;;;;;6216897;23;19943;-76
2023/12/31 07:34:36;;;;;;;;;;;8.00;99.90;;;;;;6217248;23;19915;-76
2023/12/31 07:37:02;;;;;;;;;;;8.10;99.90;;;;;;6190268;23;19923;-76
2023/12/31 07:39:27;;;;;;;;;;;8.00;99.90;;;;;;6216798;23;19926;-76
2023/12/31 07:41:53;;;;;;;;;;;8.00;99.90;;;;;;6190159;23;20328;-76
2023/12/31 07:44:19;;;;;;;;;;;8.00;99.90;;;;;;6217194;23;20008;-76
2023/12/31 07:46:45;;;;;;;;;;;8.10;99.90;;;;;;6216813;23;19916;-76
2023/12/31 07:49:10;;;;;;;;;;;8.10;99.90;;;;;;6189945;23;19952;-76
2023/12/31 07:51:38;;;;;;;;;;;8.10;99.90;;;;;;6216953;23;19916;-76
2023/12/31 07:54:03;;;;;;;;;;;8.10;99.90;;;;;;6189998;23;20320;-76
2023/12/31 07:56:29;;;;;;;;;;;8.10;99.90;;;;;;6190048;23;19943;-76
2023/12/31 07:58:55;;;;;;;;;;;8.10;99.90;;;;;;6190070;23;20272;-76
2023/12/31 08:01:20;;;;;;;;;;;8.10;99.90;;;;;;6190190;23;19966;-76
2023/12/31 08:03:46;;;;;;;;;;;8.10;99.90;;;;;;6189957;23;19915;-76
2023/12/31 08:06:11;;;;;;;;;;;8.10;99.90;;;;;;6189915;23;19916;-76
2023/12/31 08:08:37;;;;;;;;;;;8.20;99.90;;;;;;6189803;23;19916;-76
2023/12/31 08:11:02;;;;;;;;;;;8.20;99.90;;;;;;6215855;23;20019;-76
2023/12/31 08:13:28;;;;;;;;;;;8.20;99.90;;;;;;6188495;23;19920;-76
2023/12/31 08:15:54;;;;;;;;;;;8.20;99.90;;;;;;6215166;23;19916;-76
2023/12/31 08:18:20;;;;;;;;;;;8.20;99.90;;;;;;6215813;23;19916;-76
2023/12/31 08:20:46;;;;;;;;;;;8.20;99.90;;;;;;6189863;23;20342;-76
2023/12/31 08:23:11;;;;;;;;;;;8.20;99.90;;;;;;6189815;23;19916;-76
2023/12/31 08:25:37;;;;;;;;;;;8.30;99.90;;;;;;6216486;23;20319;-76
2023/12/31 08:28:02;;;;;;;;;;;8.30;99.90;;;;;;6216692;23;19926;-76
2023/12/31 08:30:28;;;;;;;;;;;8.30;99.90;;;;;;6189630;23;19926;-76
2023/12/31 08:32:53;;;;;;;;;;;8.30;99.90;;;;;;6216729;23;19916;-76
2023/12/31 08:35:19;;;;;;;;;;;8.30;99.90;;;;;;6216690;23;19971;-76
2023/12/31 08:37:44;;;;;;;;;;;8.30;99.90;;;;;;6189849;23;19970;-76
2023/12/31 08:40:10;;;;;;;;;;;8.30;99.90;;;;;;6216350;23;19991;-76
2023/12/31 08:42:36;;;;;;;;;;;8.30;99.90;;;;;;6216318;23;20220;-76
2023/12/31 08:45:06;;;;;;;;;;;8.30;99.90;;;;;;6216551;23;19919;-77
2023/12/31 08:47:32;;;;;;;;;;;8.40;99.90;;;;;;6189658;23;19916;-76
2023/12/31 08:49:58;;;;;;;;;;;8.50;99.90;;;;;;6189451;23;19919;-76
2023/12/31 08:52:23;;;;;;;;;;;8.50;99.90;;;;;;6215069;23;20313;-76
2023/12/31 08:54:51;;;;;;;;;;;8.50;99.90;;;;;;6189675;23;19990;-77
2023/12/31 08:57:17;;;;;;;;;;;8.50;99.90;;;;;;6189554;23;20001;-77
2023/12/31 08:59:42;;;;;;;;;;;8.50;99.90;;;;;;6189710;23;19919;-77
2023/12/31 09:02:08;;;;;;;;;;;8.60;99.90;;;;;;6216560;23;19966;-77
2023/12/31 09:04:36;;;;;;;;;;;8.60;99.90;;;;;;6216537;23;19919;-77
2023/12/31 09:07:02;;;;;;;;;;;8.60;99.90;;;;;;6216284;23;19947;-77
2023/12/31 09:09:27;;;;;;;;;;;8.60;99.90;;;;;;6216198;23;19915;-77
2023/12/31 09:11:53;;;;;;;;;;;8.60;99.90;;;;;;6189540;23;19923;-77
2023/12/31 09:14:18;;;;;;;;;;;8.60;99.90;;;;;;6216538;23;19920;-77
2023/12/31 09:16:44;;;;;;;;;;;8.60;99.90;;;;;;6216533;23;19912;-77
2023/12/31 09:19:09;;;;;;;;;;;8.60;99.90;;;;;;6188662;23;19999;-77
2023/12/31 09:21:35;;;;;;;;;;;8.70;99.90;;;;;;6216114;23;19912;-76
2023/12/31 09:24:00;;;;;;;;;;;8.70;99.90;;;;;;6216100;23;19970;-83
2023/12/31 09:26:26;;;;;;;;;;;8.70;99.90;;;;;;6189057;23;19990;-77
2023/12/31 09:28:51;;;;;;;;;;;8.80;99.90;;;;;;6215101;23;19967;-77
2023/12/31 09:31:20;;;;;;;;;;;8.80;99.90;;;;;;6189310;23;20316;-77
2023/12/31 09:33:45;;;;;;;;;;;8.80;99.90;;;;;;6189289;23;20045;-77
2023/12/31 09:36:11;;;;;;;;;;;8.80;99.90;;;;;;6215638;23;19963;-77
2023/12/31 09:38:39;;;;;;;;;;;8.80;99.90;;;;;;6217604;23;19915;-77
2023/12/31 09:41:08;;;;;;;;;;;8.80;99.90;;;;;;6217941;23;19915;-77
2023/12/31 09:43:35;;;;;;;;;;;8.80;99.90;;;;;;6191066;23;19922;-77
2023/12/31 09:46:02;;;;;;;;;;;8.80;99.90;;;;;;6217396;23;19951;-77
2023/12/31 09:48:28;;;;;;;;;;;8.80;99.90;;;;;;6217690;23;20023;-77
2023/12/31 09:50:55;;;;;;;;;;;8.80;99.90;;;;;;6190911;23;19916;-78
2023/12/31 09:53:22;;;;;;;;;;;8.80;99.90;;;;;;6217797;23;19927;-78
2023/12/31 09:55:49;;;;;;;;;;;8.80;99.90;;;;;;6191000;23;19916;-77
2023/12/31 09:58:16;;;;;;;;;;;8.80;99.90;;;;;;6217874;23;19923;-78
2023/12/31 10:00:41;;;;;;;;;;;8.80;99.90;;;;;;6217561;23;20002;-78
2023/12/31 10:03:07;;;;;;;;;;;8.80;99.90;;;;;;6190608;23;20328;-78
2023/12/31 10:05:34;;;;;;;;;;;8.80;99.90;;;;;;6217570;23;19916;-80
2023/12/31 10:08:03;;;;;;;;;;;8.70;99.90;;;;;;6190725;23;19923;-79
2023/12/31 10:10:29;;;;;;;;;;;8.70;99.90;;;;;;6190441;23;19970;-78
2023/12/31 10:12:55;;;;;;;;;;;8.70;99.90;;;;;;6217565;23;19916;-79
2023/12/31 10:15:21;;;;;;;;;;;8.70;99.90;;;;;;6190766;23;19915;-79
2023/12/31 10:17:46;;;;;;;;;;;8.70;99.90;;;;;;6190824;23;19916;-79
2023/12/31 10:20:12;;;;;;;;;;;8.70;99.90;;;;;;6217259;23;19923;-78
2023/12/31 10:22:37;;;;;;;;;;;8.70;99.90;;;;;;6217706;23;20047;-78
2023/12/31 10:25:13;;;;;;;;;;;8.70;99.90;;;;;;6217668;23;19995;-78
2023/12/31 10:27:39;;;;;;;;;;;8.60;99.90;;;;;;6217582;23;20066;-79
2023/12/31 10:30:09;;;;;;;;;;;8.70;99.90;;;;;;6190486;23;20292;-78
2023/12/31 10:32:35;;;;;;;;;;;8.70;99.90;;;;;;6217665;23;19916;-80
2023/12/31 10:35:04;;;;;;;;;;;8.70;99.90;;;;;;6190339;23;20316;-78
2023/12/31 10:37:29;;;;;;;;;;;8.70;99.90;;;;;;6190468;23;20251;-78
2023/12/31 10:39:54;;;;;;;;;;;8.70;99.90;;;;;;6191038;23;19916;-78
2023/12/31 10:42:21;;;;;;;;;;;8.70;99.90;;;;;;6190367;23;19916;-78
2023/12/31 10:44:48;;;;;;;;;;;8.80;99.90;;;;;;6190472;23;19916;-78
2023/12/31 10:47:16;;;;;;;;;;;8.80;99.90;;;;;;6217051;23;19916;-78
2023/12/31 10:49:46;;;;;;;;;;;8.80;99.90;;;;;;6216597;23;19922;-78
2023/12/31 10:52:16;;;;;;;;;;;8.80;99.90;;;;;;6190339;23;19916;-78
2023/12/31 10:54:42;;;;;;;;;;;8.80;99.90;;;;;;6190496;23;19916;-78
2023/12/31 10:57:09;;;;;;;;;;;8.80;99.90;;;;;;6190072;23;19992;-78
2023/12/31 10:59:35;;;;;;;;;;;8.80;99.90;;;;;;6190351;23;19915;-77
2023/12/31 11:02:01;;;;;;;;;;;8.90;99.90;;;;;;6217087;23;19922;-79
2023/12/31 11:04:30;;;;;;;;;;;8.90;99.90;;;;;;6217208;23;19915;-78
2023/12/31 11:06:56;;;;;;;;;;;9.00;99.90;;;;;;6190226;23;19916;-78
2023/12/31 11:09:21;;;;;;;;;;;8.90;99.90;;;;;;6189945;23;20278;-78
2023/12/31 11:11:50;;;;;;;;;;;9.00;99.90;;;;;;6217062;23;19915;-78
2023/12/31 11:14:18;;;;;;;;;;;8.90;99.90;;;;;;6217081;23;19947;-78
2023/12/31 11:16:46;;;;;;;;;;;8.90;99.90;;;;;;6189906;23;19970;-78
2023/12/31 11:19:26;;;;;;;;;;;8.90;99.90;;;;;;6216832;23;19915;-78
2023/12/31 11:22:09;;;;;;;;;;;8.90;99.90;;;;;;6190048;23;19919;-78
2023/12/31 11:24:35;;;;;;;;;;;8.90;99.90;;;;;;6217090;23;19920;-79
2023/12/31 11:27:03;;;;;;;;;;;8.90;99.90;;;;;;6216371;23;19962;-79
2023/12/31 11:29:28;;;;;;;;;;;8.80;99.90;;;;;;6190082;23;19919;-79
2023/12/31 11:31:54;;;;;;;;;;;8.80;99.90;;;;;;6189918;23;19922;-79
2023/12/31 11:34:20;;;;;;;;;;;8.70;99.90;;;;;;6216874;23;19988;-79
2023/12/31 11:36:46;;;;;;;;;;;8.50;99.90;;;;;;6216864;23;19955;-78
2023/12/31 11:39:16;;;;;;;;;;;8.50;99.90;;;;;;6216564;23;19951;-79
2023/12/31 11:41:49;;;;;;;;;;;8.40;99.90;;;;;;6216178;23;20351;-79
2023/12/31 11:44:33;;;;;;;;;;;8.30;99.90;;;;;;6189913;23;19931;-79
2023/12/31 11:46:59;;;;;;;;;;;8.30;99.90;;;;;;6189960;23;19931;-78
2023/12/31 11:49:25;;;;;;;;;;;8.20;99.90;;;;;;6189627;23;20283;-78
2023/12/31 11:51:55;;;;;;;;;;;8.20;99.90;;;;;;6216726;23;19978;-79
2023/12/31 11:54:23;;;;;;;;;;;8.20;99.90;;;;;;6216662;23;19916;-78
2023/12/31 11:56:51;;;;;;;;;;;8.20;99.90;;;;;;6216221;23;19963;-77
2023/12/31 11:59:17;;;;;;;;;;;8.10;99.90;;;;;;6189392;23;20248;-77
2023/12/31 12:01:43;;;;;;;;;;;8.10;99.90;;;;;;6189828;23;19970;-77
2023/12/31 12:04:10;;;;;;;;;;;8.10;99.90;;;;;;6189813;23;19920;-78
2023/12/31 12:06:35;;;;;;;;;;;8.00;99.90;;;;;;6189347;23;19990;-78
2023/12/31 12:09:01;;;;;;;;;;;8.00;99.90;;;;;;6189650;23;19920;-77
2023/12/31 12:11:26;;;;;;;;;;;8.00;99.90;;;;;;6216463;23;19915;-76
2023/12/31 12:13:52;;;;;;;;;;;8.00;99.90;;;;;;6189648;23;19915;-78
2023/12/31 12:16:18;;;;;;;;;;;8.00;99.90;;;;;;6189737;23;19920;-78
2023/12/31 12:18:44;;;;;;;;;;;8.00;99.90;;;;;;6188516;23;20220;-79
2023/12/31 12:21:09;;;;;;;;;;;8.00;99.90;;;;;;6215803;23;19947;-79
2023/12/31 12:23:35;;;;;;;;;;;8.00;99.90;;;;;;6189677;23;19916;-79
2023/12/31 12:26:02;;;;;;;;;;;8.10;99.90;;;;;;6189693;23;19920;-79
2023/12/31 12:28:27;;;;;;;;;;;8.20;99.90;;;;;;6216287;23;19923;-79
2023/12/31 12:30:53;;;;;;;;;;;8.30;99.90;;;;;;6216171;23;19919;-77
2023/12/31 12:33:19;;;;;;;;;;;8.40;99.90;;;;;;6189638;23;19958;-77
2023/12/31 12:35:45;;;;;;;;;;;8.60;99.90;;;;;;6189524;23;19912;-77
2023/12/31 12:38:12;;;;;;;;;;;8.70;99.90;;;;;;6189388;23;19923;-77
2023/12/31 12:40:38;;;;;;;;;;;8.80;99.90;;;;;;6216345;23;19938;-77
2023/12/31 12:43:04;;;;;;;;;;;8.90;99.90;;;;;;6216496;23;20232;-77
2023/12/31 12:45:30;;;;;;;;;;;9.00;99.90;;;;;;6189611;23;19920;-79
2023/12/31 12:47:59;;;;;;;;;;;9.00;99.90;;;;;;6189678;23;19915;-79
2023/12/31 12:50:29;;;;;;;;;;;9.00;99.90;;;;;;6189101;23;20324;-77
2023/12/31 12:52:57;;;;;;;;;;;9.00;99.90;;;;;;6216146;23;19919;-79
2023/12/31 12:55:22;;;;;;;;;;;8.90;99.90;;;;;;6189440;23;19987;-78
2023/12/31 12:57:48;;;;;;;;;;;8.90;99.90;;;;;;6189459;23;19951;-77
2023/12/31 13:00:15;;;;;;;;;;;8.90;99.90;;;;;;6189434;23;19911;-77
2023/12/31 13:02:41;;;;;;;;;;;8.80;99.90;;;;;;6189130;23;19995;-79
2023/12/31 13:05:06;;;;;;;;;;;8.80;99.90;;;;;;6216387;23;19957;-78
2023/12/31 13:07:32;;;;;;;;;;;8.80;99.90;;;;;;6216089;23;20259;-78
2023/12/31 13:09:58;;;;;;;;;;;8.70;99.90;;;;;;6188777;23;19916;-79
2023/12/31 13:12:23;;;;;;;;;;;8.60;99.90;;;;;;6217963;23;19916;-78
2023/12/31 13:14:49;;;;;;;;;;;8.60;99.90;;;;;;6218169;23;19920;-78
2023/12/31 13:17:14;;;;;;;;;;;8.50;99.90;;;;;;6217840;23;19916;-80
2023/12/31 13:19:43;;;;;;;;;;;8.40;99.90;;;;;;6191439;23;19966;-79
2023/12/31 13:22:09;;;;;;;;;;;8.40;99.90;;;;;;6191163;23;19922;-79
2023/12/31 13:24:35;;;;;;;;;;;8.40;99.90;;;;;;6218326;23;19916;-78
2023/12/31 13:27:00;;;;;;;;;;;8.40;99.90;;;;;;6217477;23;20302;-79
2023/12/31 13:29:26;;;;;;;;;;;8.40;99.90;;;;;;6191263;23;19955;-79
2023/12/31 13:31:51;;;;;;;;;;;8.40;99.90;;;;;;6191029;23;19990;-79
2023/12/31 13:34:17;;;;;;;;;;;8.30;99.90;;;;;;6217975;23;19919;-79
2023/12/31 13:36:42;;;;;;;;;;;8.20;99.90;;;;;;6191105;23;19916;-79
2023/12/31 13:39:08;;;;;;;;;;;8.10;99.90;;;;;;6217824;23;19916;-81
2023/12/31 13:41:34;;;;;;;;;;;8.10;99.90;;;;;;6191111;23;20303;-79
2023/12/31 13:44:00;;;;;;;;;;;8.00;99.90;;;;;;6218014;23;19974;-80
2023/12/31 13:46:26;;;;;;;;;;;8.00;99.90;;;;;;6217960;23;19920;-78
2023/12/31 13:48:55;;;;;;;;;;;7.90;99.90;;;;;;6216946;23;19931;-79
2023/12/31 13:51:22;;;;;;;;;;;7.90;99.90;;;;;;6216310;23;19923;-79
2023/12/31 13:53:49;;;;;;;;;;;7.90;99.90;;;;;;6191283;23;20002;-79
2023/12/31 13:56:15;;;;;;;;;;;7.80;99.90;;;;;;6218025;23;19971;-78
2023/12/31 13:58:40;;;;;;;;;;;7.80;99.90;;;;;;6218061;23;19916;-78
2023/12/31 14:01:06;;;;;;;;;;;7.80;99.90;;;;;;6191121;23;19916;-79
2023/12/31 14:03:32;;;;;;;;;;;7.80;99.90;;;;;;6218049;23;19915;-79
2023/12/31 14:05:57;;;;;;;;;;;7.70;99.90;;;;;;6217988;23;19915;-78
2023/12/31 14:08:26;;;;;;;;;;;7.80;99.90;;;;;;6218051;23;19916;-79
2023/12/31 14:10:52;;;;;;;;;;;7.80;99.90;;;;;;6190841;23;19923;-79
2023/12/31 14:13:17;;;;;;;;;;;7.80;99.90;;;;;;6217916;23;19999;-79
2023/12/31 14:15:43;;;;;;;;;;;7.80;99.90;;;;;;6216595;23;19954;-80
2023/12/31 14:18:08;;;;;;;;;;;7.80;99.90;;;;;;6190145;23;19920;-79
2023/12/31 14:20:34;;;;;;;;;;;7.80;99.90;;;;;;6217864;23;19954;-79
2023/12/31 14:23:00;;;;;;;;;;;7.80;99.90;;;;;;6217488;23;20343;-80
2023/12/31 14:25:25;;;;;;;;;;;7.80;99.90;;;;;;6190795;23;19974;-79